^^
Your Local Weather - Clay, NY Station Historical Data
Daily Summary for September 22, 2017 Units:  English    Metric   Both
« Previous Day
Next Day »
Daily Weekly Monthly Yearly Custom
  High: Low: Average:
Temperature: 80.5 °F 53.9 °F 64.3 °F
Dew Point: 64.3 °F 52.2 °F 57.6 °F
Humidity: 95% 47% 81%
Wind Speed: 2.0mph 0.0mph 0.3mph
Wind Gust: 6.0mph - -
Wind- - WSW
Pressure: 30.10 in 30.01 in -
Precipitation: 0.00 in    
Historical Graphs
 
 
Tabular Data for September 22, 2017
Time Temperature Dew Point Pressure Wind Wind Speed Wind Gust Humidity Rainfall Rate (Hourly) solar
00:04 60.5 °F 58.2 °F 30.05 in Calm     92% 0.00 in 0 W/m2
00:10 60.3 °F 58.0 °F 30.05 in Calm     92% 0.00 in 0 W/m2
00:16 60.2 °F 58.2 °F 30.05 in Calm     93% 0.00 in 0 W/m2
00:22 60.0 °F 57.7 °F 30.05 in Calm     92% 0.00 in 0 W/m2
00:28 60.0 °F 58.0 °F 30.05 in Calm     93% 0.00 in 0 W/m2
00:34 59.8 °F 57.8 °F 30.05 in Calm     93% 0.00 in 0 W/m2
00:40 59.6 °F 57.6 °F 30.05 in Calm     93% 0.00 in 0 W/m2
00:46 59.5 °F 57.5 °F 30.05 in Calm     93% 0.00 in 0 W/m2
00:52 59.2 °F 57.2 °F 30.05 in Calm     93% 0.00 in 0 W/m2
00:58 59.1 °F 57.1 °F 30.05 in Calm     93% 0.00 in 0 W/m2
01:04 58.9 °F 56.9 °F 30.06 in Calm     93% 0.00 in 0 W/m2
01:10 58.7 °F 56.7 °F 30.05 in Calm     93% 0.00 in 0 W/m2
01:16 58.7 °F 56.7 °F 30.05 in Calm     93% 0.00 in 0 W/m2
01:22 58.6 °F 56.6 °F 30.05 in Calm     93% 0.00 in 0 W/m2
01:28 58.4 °F 56.4 °F 30.05 in Calm     93% 0.00 in 0 W/m2
01:34 58.3 °F 56.3 °F 30.05 in Calm     93% 0.00 in 0 W/m2
01:40 58.0 °F 56.0 °F 30.05 in Calm     93% 0.00 in 0 W/m2
01:46 57.9 °F 55.9 °F 30.05 in Calm     93% 0.00 in 0 W/m2
01:52 57.8 °F 55.8 °F 30.05 in Calm     93% 0.00 in 0 W/m2
01:58 57.6 °F 55.6 °F 30.05 in Calm     93% 0.00 in 0 W/m2
02:04 57.4 °F 55.4 °F 30.05 in Calm     93% 0.00 in 0 W/m2
02:10 57.5 °F 55.5 °F 30.05 in Calm     93% 0.00 in 0 W/m2
02:16 57.5 °F 55.5 °F 30.05 in Calm     93% 0.00 in 0 W/m2
02:22 57.4 °F 55.4 °F 30.05 in Calm     93% 0.00 in 0 W/m2
02:28 57.3 °F 55.6 °F 30.06 in Calm   1.0 mph 94% 0.00 in 0 W/m2
02:36 57.0 °F 55.0 °F 30.05 in Calm     93% 0.00 in 0 W/m2
02:42 57.0 °F 55.3 °F 30.05 in Calm     94% 0.00 in 0 W/m2
02:48 57.1 °F 55.4 °F 30.05 in Calm     94% 0.00 in 0 W/m2
02:54 56.9 °F 55.2 °F 30.05 in Calm     94% 0.00 in 0 W/m2
03:00 56.8 °F 55.1 °F 30.06 in Calm     94% 0.00 in 0 W/m2
03:06 56.8 °F 55.1 °F 30.06 in Calm     94% 0.00 in 0 W/m2
03:12 56.7 °F 55.0 °F 30.06 in Calm     94% 0.00 in 0 W/m2
03:18 56.6 °F 54.9 °F 30.06 in Calm     94% 0.00 in 0 W/m2
03:26 56.4 °F 54.7 °F 30.05 in Calm     94% 0.00 in 0 W/m2
03:32 56.2 °F 54.5 °F 30.06 in Calm     94% 0.00 in 0 W/m2
03:38 56.0 °F 54.3 °F 30.06 in Calm     94% 0.00 in 0 W/m2
03:44 55.9 °F 54.2 °F 30.06 in Calm     94% 0.00 in 0 W/m2
03:50 55.8 °F 54.1 °F 30.06 in Calm     94% 0.00 in 0 W/m2
03:56 55.7 °F 54.0 °F 30.06 in Calm     94% 0.00 in 0 W/m2
04:02 55.7 °F 54.0 °F 30.06 in Calm     94% 0.00 in 0 W/m2
04:08 55.9 °F 54.2 °F 30.06 in Calm     94% 0.00 in 0 W/m2
04:14 55.9 °F 54.2 °F 30.06 in Calm     94% 0.00 in 0 W/m2
04:20 56.0 °F 54.3 °F 30.06 in Calm     94% 0.00 in 0 W/m2
04:26 55.9 °F 54.2 °F 30.06 in Calm     94% 0.00 in 0 W/m2
04:32 55.7 °F 54.0 °F 30.06 in Calm     94% 0.00 in 0 W/m2
04:38 55.5 °F 53.8 °F 30.06 in Calm     94% 0.00 in 0 W/m2
04:44 55.3 °F 53.6 °F 30.06 in Calm     94% 0.00 in 0 W/m2
04:50 55.3 °F 53.6 °F 30.06 in Calm     94% 0.00 in 0 W/m2
04:56 55.3 °F 53.6 °F 30.07 in Calm     94% 0.00 in 0 W/m2
05:02 55.3 °F 53.6 °F 30.07 in Calm     94% 0.00 in 0 W/m2
05:08 55.2 °F 53.5 °F 30.07 in Calm     94% 0.00 in 0 W/m2
05:14 55.0 °F 53.3 °F 30.07 in Calm     94% 0.00 in 0 W/m2
05:20 54.9 °F 53.2 °F 30.07 in Calm     94% 0.00 in 0 W/m2
05:26 54.9 °F 53.2 °F 30.07 in Calm     94% 0.00 in 0 W/m2
05:32 54.9 °F 53.2 °F 30.07 in Calm     94% 0.00 in 0 W/m2
05:38 54.9 °F 53.2 °F 30.07 in Calm     94% 0.00 in 0 W/m2
05:44 54.9 °F 53.2 °F 30.07 in Calm     94% 0.00 in 0 W/m2
05:50 54.8 °F 53.1 °F 30.07 in Calm     94% 0.00 in 0 W/m2
05:56 54.9 °F 53.2 °F 30.07 in Calm     94% 0.00 in 0 W/m2
06:02 54.9 °F 53.2 °F 30.07 in Calm     94% 0.00 in 0 W/m2
06:08 54.8 °F 53.1 °F 30.07 in Calm     94% 0.00 in 0 W/m2
06:14 54.8 °F 53.1 °F 30.07 in Calm     94% 0.00 in 0 W/m2
06:20 54.8 °F 53.4 °F 30.07 in Calm     95% 0.00 in 0 W/m2
06:26 54.8 °F 53.4 °F 30.07 in Calm     95% 0.00 in 0 W/m2
06:32 54.7 °F 53.0 °F 30.07 in Calm     94% 0.00 in 0 W/m2
06:38 54.6 °F 52.9 °F 30.07 in Calm     94% 0.00 in 0 W/m2
06:44 54.4 °F 53.0 °F 30.07 in Calm     95% 0.00 in 0 W/m2
06:50 54.2 °F 52.8 °F 30.07 in Calm     95% 0.00 in 0 W/m2
06:56 54.2 °F 52.8 °F 30.07 in Calm     95% 0.00 in 0 W/m2
07:02 54.1 °F 52.4 °F 30.07 in Calm     94% 0.00 in 5 W/m2
07:08 54.0 °F 52.3 °F 30.08 in Calm     94% 0.00 in 7 W/m2
07:14 53.9 °F 52.2 °F 30.08 in Calm     94% 0.00 in 9 W/m2
07:20 54.0 °F 52.3 °F 30.08 in Calm     94% 0.00 in 11 W/m2
07:26 54.1 °F 52.7 °F 30.08 in Calm     95% 0.00 in 12 W/m2
07:32 54.3 °F 52.9 °F 30.08 in Calm     95% 0.00 in 16 W/m2
07:38 54.6 °F 53.2 °F 30.08 in Calm     95% 0.00 in 23 W/m2
07:44 54.9 °F 53.5 °F 30.08 in Calm     95% 0.00 in 19 W/m2
07:50 55.2 °F 53.8 °F 30.08 in Calm     95% 0.00 in 25 W/m2
08:02 55.6 °F 54.2 °F 30.08 in Calm     95% 0.00 in 33 W/m2
08:08 55.8 °F 54.4 °F 30.09 in Calm     95% 0.00 in 42 W/m2
08:14 56.1 °F 54.7 °F 30.09 in Calm     95% 0.00 in 49 W/m2
08:20 56.4 °F 55.0 °F 30.09 in Calm     95% 0.00 in 46 W/m2
08:26 56.7 °F 55.3 °F 30.09 in Calm     95% 0.00 in 84 W/m2
08:32 56.9 °F 55.5 °F 30.09 in Calm     95% 0.00 in 62 W/m2
08:38 57.1 °F 55.7 °F 30.09 in Calm     95% 0.00 in 104 W/m2
08:44 57.4 °F 56.0 °F 30.09 in Calm     95% 0.00 in 153 W/m2
08:50 57.9 °F 56.5 °F 30.09 in Calm     95% 0.00 in 121 W/m2
08:56 58.1 °F 56.7 °F 30.09 in Calm     95% 0.00 in 95 W/m2
09:02 58.2 °F 56.8 °F 30.09 in Calm     95% 0.00 in 132 W/m2
09:08 58.6 °F 57.2 °F 30.09 in Calm     95% 0.00 in 141 W/m2
09:14 58.7 °F 57.3 °F 30.09 in Calm     95% 0.00 in 135 W/m2
09:20 59.0 °F 57.6 °F 30.10 in Calm   2.0 mph 95% 0.00 in 128 W/m2
09:26 59.0 °F 57.6 °F 30.10 in Calm   2.0 mph 95% 0.00 in 144 W/m2
09:32 59.5 °F 58.1 °F 30.10 in Calm   1.0 mph 95% 0.00 in 163 W/m2
09:38 59.4 °F 58.0 °F 30.10 in NW 1.0 mph 3.0 mph 95% 0.00 in 179 W/m2
09:44 59.6 °F 58.2 °F 30.10 in NW 1.0 mph 2.0 mph 95% 0.00 in 211 W/m2
09:50 59.8 °F 58.4 °F 30.10 in NW 1.0 mph 2.0 mph 95% 0.00 in 244 W/m2
09:56 60.1 °F 58.7 °F 30.10 in Calm   3.0 mph 95% 0.00 in 234 W/m2
10:02 60.4 °F 59.0 °F 30.10 in Calm   1.0 mph 95% 0.00 in 234 W/m2
10:08 60.7 °F 59.3 °F 30.10 in Calm   1.0 mph 95% 0.00 in 237 W/m2
10:14 60.8 °F 59.4 °F 30.10 in Calm     95% 0.00 in 202 W/m2
10:20 61.1 °F 59.7 °F 30.10 in Calm     95% 0.00 in 218 W/m2
10:26 61.2 °F 59.8 °F 30.10 in Calm     95% 0.00 in 169 W/m2
10:32 61.7 °F 60.3 °F 30.10 in Calm     95% 0.00 in 199 W/m2
10:38 62.1 °F 60.7 °F 30.10 in SSE 1.0 mph 3.0 mph 95% 0.00 in 255 W/m2
10:44 61.9 °F 60.5 °F 30.10 in SSE 1.0 mph 1.0 mph 95% 0.00 in 250 W/m2
10:50 61.9 °F 60.5 °F 30.09 in Calm   1.0 mph 95% 0.00 in 246 W/m2
10:56 62.2 °F 60.8 °F 30.10 in Calm   1.0 mph 95% 0.00 in 218 W/m2
11:02 62.5 °F 61.0 °F 30.10 in Calm     95% 0.00 in 237 W/m2
11:08 62.9 °F 61.4 °F 30.10 in Calm   1.0 mph 95% 0.00 in 353 W/m2
11:14 63.2 °F 61.7 °F 30.09 in SSE 1.0 mph 2.0 mph 95% 0.00 in 489 W/m2
11:20 63.3 °F 61.8 °F 30.09 in SSE 1.0 mph 1.0 mph 95% 0.00 in 492 W/m2
11:26 64.6 °F 63.1 °F 30.09 in Calm   1.0 mph 95% 0.00 in 747 W/m2
11:32 66.1 °F 64.3 °F 30.09 in North 1.0 mph 2.0 mph 94% 0.00 in 759 W/m2
11:38 66.9 °F 63.2 °F 30.09 in NNE 2.0 mph 4.0 mph 88% 0.00 in 708 W/m2
11:44 67.4 °F 63.4 °F 30.09 in NNE 2.0 mph 3.0 mph 87% 0.00 in 738 W/m2
11:50 69.5 °F 64.1 °F 30.09 in NNE 2.0 mph 2.0 mph 83% 0.00 in 759 W/m2
11:56 70.3 °F 64.2 °F 30.09 in NNE 1.0 mph 2.0 mph 81% 0.00 in 765 W/m2
12:02 70.8 °F 63.6 °F 30.09 in NNE 1.0 mph 1.0 mph 78% 0.00 in 763 W/m2
12:08 70.5 °F 61.8 °F 30.09 in SW 1.0 mph 3.0 mph 74% 0.00 in 770 W/m2
12:14 71.4 °F 60.7 °F 30.08 in NNW 2.0 mph 4.0 mph 69% 0.00 in 784 W/m2
12:20 72.1 °F 61.4 °F 30.08 in NNW 2.0 mph 2.0 mph 69% 0.00 in 714 W/m2
12:26 71.3 °F 61.0 °F 30.08 in Calm   2.0 mph 70% 0.00 in 772 W/m2
12:32 72.6 °F 60.6 °F 30.08 in Calm   3.0 mph 66% 0.00 in 763 W/m2
12:38 72.4 °F 60.4 °F 30.08 in NNW 1.0 mph 3.0 mph 66% 0.00 in 726 W/m2
12:44 72.7 °F 60.7 °F 30.07 in NNW 2.0 mph 3.0 mph 66% 0.00 in 751 W/m2
12:50 73.2 °F 60.3 °F 30.07 in NNW 2.0 mph 2.0 mph 64% 0.00 in 733 W/m2
12:56 73.0 °F 60.1 °F 30.07 in NNW 1.0 mph 2.0 mph 64% 0.00 in 721 W/m2
13:04 74.3 °F 59.5 °F 30.07 in WSW 1.0 mph 2.0 mph 60% 0.00 in 740 W/m2
13:10 74.6 °F 58.8 °F 30.07 in NW 1.0 mph 1.0 mph 58% 0.00 in 752 W/m2
13:16 75.0 °F 59.7 °F 30.07 in North 1.0 mph 4.0 mph 59% 0.00 in 744 W/m2
13:22 74.8 °F 57.0 °F 30.07 in NNW 1.0 mph 4.0 mph 54% 0.00 in 754 W/m2
13:28 74.8 °F 58.1 °F 30.07 in NNE 1.0 mph 4.0 mph 56% 0.00 in 747 W/m2
13:34 75.7 °F 59.4 °F 30.07 in NNW 2.0 mph 2.0 mph 57% 0.00 in 758 W/m2
13:40 74.8 °F 59.0 °F 30.06 in NNE 1.0 mph 1.0 mph 58% 0.00 in 749 W/m2
13:46 74.6 °F 58.4 °F 30.06 in NNW 1.0 mph 3.0 mph 57% 0.00 in 647 W/m2
13:52 74.8 °F 58.1 °F 30.06 in ENE 1.0 mph 2.0 mph 56% 0.00 in 745 W/m2
13:58 76.2 °F 60.8 °F 30.06 in NW 1.0 mph 3.0 mph 59% 0.00 in 742 W/m2
14:04 77.4 °F 58.9 °F 30.06 in NW 1.0 mph 1.0 mph 53% 0.00 in 737 W/m2
14:10 77.1 °F 60.7 °F 30.05 in NNW 1.0 mph 1.0 mph 57% 0.00 in 728 W/m2
14:16 77.4 °F 60.0 °F 30.05 in NNE 1.0 mph 6.0 mph 55% 0.00 in 728 W/m2
14:22 77.2 °F 60.3 °F 30.05 in North 2.0 mph 2.0 mph 56% 0.00 in 717 W/m2
14:28 78.0 °F 61.0 °F 30.05 in NNW 1.0 mph 3.0 mph 56% 0.00 in 686 W/m2
14:34 78.1 °F 58.5 °F 30.05 in NNW 1.0 mph 2.0 mph 51% 0.00 in 629 W/m2
14:40 77.3 °F 59.9 °F 30.04 in NNW 1.0 mph 1.0 mph 55% 0.00 in 640 W/m2
14:46 78.6 °F 60.6 °F 30.04 in Calm   1.0 mph 54% 0.00 in 670 W/m2
14:52 79.7 °F 59.4 °F 30.04 in North 1.0 mph 1.0 mph 50% 0.00 in 647 W/m2
14:58 79.5 °F 58.1 °F 30.04 in WSW 1.0 mph 2.0 mph 48% 0.00 in 636 W/m2
15:04 79.5 °F 59.8 °F 30.04 in WSW 1.0 mph 1.0 mph 51% 0.00 in 638 W/m2
15:10 79.9 °F 60.2 °F 30.03 in Calm     51% 0.00 in 550 W/m2
15:16 78.8 °F 60.2 °F 30.03 in Calm   2.0 mph 53% 0.00 in 548 W/m2
15:22 79.3 °F 58.5 °F 30.03 in NNE 2.0 mph 2.0 mph 49% 0.00 in 563 W/m2
15:28 79.9 °F 60.7 °F 30.02 in North 2.0 mph 3.0 mph 52% 0.00 in 603 W/m2
15:34 79.7 °F 58.8 °F 30.03 in NW 2.0 mph 4.0 mph 49% 0.00 in 550 W/m2
15:40 79.6 °F 59.3 °F 30.02 in North 2.0 mph 2.0 mph 50% 0.00 in 424 W/m2
15:46 79.4 °F 58.6 °F 30.02 in WSW 1.0 mph 2.0 mph 49% 0.00 in 461 W/m2
15:52 80.1 °F 58.6 °F 30.02 in Calm   1.0 mph 48% 0.00 in 513 W/m2
15:58 80.5 °F 61.3 °F 30.01 in Calm   1.0 mph 52% 0.00 in 490 W/m2
16:04 80.4 °F 60.1 °F 30.01 in NW 1.0 mph 3.0 mph 50% 0.00 in 487 W/m2
16:10 80.4 °F 60.6 °F 30.01 in North 1.0 mph 1.0 mph 51% 0.00 in 371 W/m2
16:16 79.5 °F 58.7 °F 30.01 in Calm   1.0 mph 49% 0.00 in 308 W/m2
16:22 79.4 °F 58.0 °F 30.01 in Calm   1.0 mph 48% 0.00 in 380 W/m2
16:28 79.5 °F 57.5 °F 30.01 in NW 1.0 mph 1.0 mph 47% 0.00 in 420 W/m2
16:34 79.8 °F 57.8 °F 30.01 in NW 1.0 mph 5.0 mph 47% 0.00 in 374 W/m2
16:40 79.7 °F 57.7 °F 30.01 in NW 1.0 mph 1.0 mph 47% 0.00 in 362 W/m2
16:46 79.5 °F 57.5 °F 30.01 in NW 1.0 mph 1.0 mph 47% 0.00 in 367 W/m2
16:52 79.5 °F 57.5 °F 30.01 in NW 1.0 mph 3.0 mph 47% 0.00 in 352 W/m2
16:58 79.1 °F 60.0 °F 30.01 in NW 1.0 mph 3.0 mph 52% 0.00 in 338 W/m2
17:04 79.0 °F 60.4 °F 30.01 in NNW 1.0 mph 2.0 mph 53% 0.00 in 327 W/m2
17:10 78.4 °F 60.4 °F 30.01 in NNW 1.0 mph 1.0 mph 54% 0.00 in 287 W/m2
17:16 78.2 °F 61.2 °F 30.01 in WNW 1.0 mph 2.0 mph 56% 0.00 in 267 W/m2
17:22 78.1 °F 60.6 °F 30.01 in WNW 1.0 mph 2.0 mph 55% 0.00 in 265 W/m2
17:28 77.7 °F 60.8 °F 30.01 in NW 1.0 mph 2.0 mph 56% 0.00 in 251 W/m2
17:34 77.1 °F 61.2 °F 30.01 in NNW 1.0 mph 3.0 mph 58% 0.00 in 227 W/m2
17:40 76.7 °F 60.8 °F 30.01 in NNW 1.0 mph 1.0 mph 58% 0.00 in 70 W/m2
17:46 76.3 °F 60.4 °F 30.01 in NW 1.0 mph 1.0 mph 58% 0.00 in 67 W/m2
17:52 76.0 °F 60.6 °F 30.01 in NW 1.0 mph 3.0 mph 59% 0.00 in 169 W/m2
17:58 75.6 °F 61.7 °F 30.01 in Calm   3.0 mph 62% 0.00 in 149 W/m2
18:04 75.5 °F 61.1 °F 30.01 in Calm     61% 0.00 in 62 W/m2
18:10 75.1 °F 61.2 °F 30.01 in Calm     62% 0.00 in 28 W/m2
18:16 74.5 °F 61.1 °F 30.01 in Calm     63% 0.00 in 25 W/m2
18:22 74.0 °F 60.6 °F 30.01 in Calm     63% 0.00 in 21 W/m2
18:28 73.5 °F 60.6 °F 30.01 in Calm     64% 0.00 in 18 W/m2
18:34 73.0 °F 60.1 °F 30.01 in Calm     64% 0.00 in 16 W/m2
18:40 72.5 °F 60.1 °F 30.01 in Calm     65% 0.00 in 16 W/m2
18:46 72.0 °F 60.0 °F 30.01 in Calm     66% 0.00 in 11 W/m2
18:52 71.3 °F 59.8 °F 30.01 in Calm     67% 0.00 in 7 W/m2
18:58 70.8 °F 59.7 °F 30.01 in Calm     68% 0.00 in 5 W/m2
19:04 70.2 °F 59.6 °F 30.01 in Calm     69% 0.00 in 0 W/m2
19:10 69.4 °F 59.2 °F 30.01 in Calm     70% 0.00 in 0 W/m2
19:16 68.8 °F 59.4 °F 30.01 in Calm     72% 0.00 in 0 W/m2
19:22 68.3 °F 59.3 °F 30.01 in Calm     73% 0.00 in 0 W/m2
19:28 67.8 °F 59.2 °F 30.02 in Calm     74% 0.00 in 0 W/m2
19:34 67.3 °F 58.7 °F 30.02 in Calm     74% 0.00 in 0 W/m2
19:40 66.8 °F 59.0 °F 30.02 in Calm     76% 0.00 in 0 W/m2
19:48 66.0 °F 59.3 °F 30.02 in Calm     79% 0.00 in 0 W/m2
19:54 65.4 °F 58.7 °F 30.02 in Calm     79% 0.00 in 0 W/m2
20:00 65.0 °F 58.7 °F 30.02 in Calm     80% 0.00 in 0 W/m2
20:06 64.7 °F 58.7 °F 30.02 in Calm     81% 0.00 in 0 W/m2
20:12 64.5 °F 58.9 °F 30.03 in Calm     82% 0.00 in 0 W/m2
20:18 64.3 °F 58.7 °F 30.03 in Calm     82% 0.00 in 0 W/m2
20:24 64.0 °F 58.4 °F 30.03 in Calm     82% 0.00 in 0 W/m2
20:30 63.8 °F 58.5 °F 30.03 in Calm     83% 0.00 in 0 W/m2
20:36 63.6 °F 58.3 °F 30.03 in Calm     83% 0.00 in 0 W/m2
20:42 63.3 °F 58.0 °F 30.03 in Calm     83% 0.00 in 0 W/m2
20:50 63.0 °F 57.8 °F 30.03 in Calm     83% 0.00 in 0 W/m2
20:56 62.9 °F 58.0 °F 30.03 in Calm     84% 0.00 in 0 W/m2
21:02 62.7 °F 57.8 °F 30.03 in Calm     84% 0.00 in 0 W/m2
21:08 62.7 °F 58.1 °F 30.03 in Calm     85% 0.00 in 0 W/m2
21:14 62.5 °F 57.9 °F 30.03 in Calm     85% 0.00 in 0 W/m2
21:20 62.3 °F 57.7 °F 30.03 in Calm     85% 0.00 in 0 W/m2
21:26 62.2 °F 57.6 °F 30.03 in Calm     85% 0.00 in 0 W/m2
21:32 62.1 °F 57.9 °F 30.03 in Calm     86% 0.00 in 0 W/m2
21:38 62.1 °F 57.9 °F 30.03 in Calm     86% 0.00 in 0 W/m2
21:44 62.0 °F 57.8 °F 30.03 in Calm     86% 0.00 in 0 W/m2
21:52 61.8 °F 57.9 °F 30.04 in Calm     87% 0.00 in 0 W/m2
21:58 61.6 °F 57.7 °F 30.03 in Calm     87% 0.00 in 0 W/m2
22:04 61.5 °F 57.6 °F 30.03 in Calm     87% 0.00 in 0 W/m2
22:10 61.4 °F 57.5 °F 30.03 in Calm     87% 0.00 in 0 W/m2
22:16 61.3 °F 57.7 °F 30.03 in Calm     88% 0.00 in 0 W/m2
22:22 61.0 °F 57.4 °F 30.03 in Calm     88% 0.00 in 0 W/m2
22:28 60.9 °F 57.3 °F 30.03 in Calm     88% 0.00 in 0 W/m2
22:34 60.8 °F 57.5 °F 30.03 in Calm     89% 0.00 in 0 W/m2
22:40 60.6 °F 57.3 °F 30.03 in Calm     89% 0.00 in 0 W/m2
22:46 60.4 °F 57.1 °F 30.03 in Calm     89% 0.00 in 0 W/m2
22:52 60.2 °F 56.9 °F 30.03 in Calm     89% 0.00 in 0 W/m2
22:58 60.0 °F 56.7 °F 30.03 in Calm     89% 0.00 in 0 W/m2
23:04 59.8 °F 56.9 °F 30.03 in Calm     90% 0.00 in 0 W/m2
23:10 59.7 °F 56.8 °F 30.04 in Calm     90% 0.00 in 0 W/m2
23:16 59.5 °F 56.6 °F 30.04 in Calm     90% 0.00 in 0 W/m2
23:22 59.3 °F 56.4 °F 30.04 in Calm     90% 0.00 in 0 W/m2
23:28 59.2 °F 56.3 °F 30.04 in Calm     90% 0.00 in 0 W/m2
23:34 58.9 °F 56.3 °F 30.04 in Calm     91% 0.00 in 0 W/m2
23:40 58.6 °F 56.0 °F 30.04 in Calm     91% 0.00 in 0 W/m2
23:46 58.4 °F 55.8 °F 30.04 in Calm     91% 0.00 in 0 W/m2
23:52 58.2 °F 55.6 °F 30.04 in Calm     91% 0.00 in 0 W/m2
23:58 58.0 °F 55.4 °F 30.04 in Calm     91% 0.00 in 0 W/m2
Country Meadow, Clay, NY, USA
Compliments of Weather Underground - 2 mb